Terminal Aerodrome Forecast
Issued by NWS

Home | Current Version | Previous Version | Text Only | Print | Product List | Glossary Off
Versions: 1 2 3 4 5 6 7 8 9 10 11 12 13 14 15 16 17

000
FTUS43 KMPX 281518 AAA
TAFRWF
TAF AMD
KRWF 281518Z 2815/2912 20015G23KT P6SM BKN250
     FM281700 18018G28KT P6SM FEW070 BKN150
     FM290100 19011KT P6SM SCT050 BKN080
     FM290300 19008KT P6SM VCSH BKN050
     FM290500 19006KT P6SM -SHRA BKN020 OVC040=

USA.gov is the U.S. government's official web portal to all federal, state and local government web resources and services.